Time;durP1;ratioP1;P1;durP2;ratioP2;P2;SDS_P1;SDS_P2;PMS_P1;PMS_P2;Temp;Humidity;BMP_temperature;BMP_pressure;BME280_temperature;BME280_humidity;BME280_pressure;Samples;Min_cycle;Max_cycle;Signal;HPM_P1;HPM_P2
2023/06/04 00:00:17;;;;;;;27.63;17.23;;;;;;;;;;5095837;28;20487;-59
2023/06/04 00:02:44;;;;;;;27.97;20.10;;;;;;;;;;5095843;28;20451;-59
2023/06/04 00:05:11;;;;;;;13.63;10.60;;;;;;;;;;5095657;28;20424;-59
2023/06/04 00:07:39;;;;;;;12.37;8.13;;;;;;;;;;5095534;28;20422;-59
2023/06/04 00:10:06;;;;;;;12.17;8.10;;;;;;;;;;5095442;28;20496;-59
2023/06/04 00:12:33;;;;;;;9.00;7.47;;;;;;;;;;5095694;28;20414;-59
2023/06/04 00:15:07;;;;;;;6.00;5.20;;;;;;;;;;5095663;28;20450;-59
2023/06/04 00:17:34;;;;;;;5.93;4.93;;;;;;;;;;5095515;28;20554;-60
2023/06/04 00:20:01;;;;;;;4.90;4.10;;;;;;;;;;5095305;28;20447;-59
2023/06/04 00:22:31;;;;;;;4.20;3.90;;;;;;;;;;5095316;28;20457;-59
2023/06/04 00:25:01;;;;;;;4.17;3.77;;;;;;;;;;5095457;28;20425;-59
2023/06/04 00:27:33;;;;;;;4.50;3.93;;;;;;;;;;5095271;28;20432;-59
2023/06/04 00:30:01;;;;;;;4.90;4.13;;;;;;;;;;5095360;28;20428;-59
2023/06/04 00:32:29;;;;;;;5.07;3.90;;;;;;;;;;5094976;28;20522;-58
2023/06/04 00:34:57;;;;;;;3.73;3.40;;;;;;;;;;5095391;28;20421;-59
2023/06/04 00:37:25;;;;;;;6.63;3.90;;;;;;;;;;5095196;28;20428;-59
2023/06/04 00:39:52;;;;;;;6.20;4.50;;;;;;;;;;5095077;28;20521;-59
2023/06/04 00:42:20;;;;;;;4.73;4.20;;;;;;;;;;5095035;28;20451;-61
2023/06/04 00:44:47;;;;;;;7.80;3.90;;;;;;;;;;5094754;28;20429;-60
2023/06/04 00:47:16;;;;;;;3.77;3.43;;;;;;;;;;5094614;28;20464;-59
2023/06/04 00:49:46;;;;;;;3.30;2.93;;;;;;;;;;5094834;28;20517;-59
2023/06/04 00:52:15;;;;;;;4.37;3.00;;;;;;;;;;5094620;28;20460;-58
2023/06/04 00:54:42;;;;;;;3.97;3.67;;;;;;;;;;5094588;28;20541;-59
2023/06/04 00:57:10;;;;;;;3.80;3.50;;;;;;;;;;5094064;28;20467;-58
2023/06/04 00:59:38;;;;;;;4.20;3.80;;;;;;;;;;5094550;28;20497;-58
2023/06/04 01:02:14;;;;;;;4.37;3.90;;;;;;;;;;5095016;28;20455;-58
2023/06/04 01:04:46;;;;;;;4.30;3.90;;;;;;;;;;5094519;28;20534;-58
2023/06/04 01:07:15;;;;;;;9.90;4.03;;;;;;;;;;5094608;28;20936;-59
2023/06/04 01:09:45;;;;;;;5.43;3.97;;;;;;;;;;5094477;28;20425;-58
2023/06/04 01:12:15;;;;;;;7.83;3.50;;;;;;;;;;5094903;28;20478;-59
2023/06/04 01:14:42;;;;;;;12.70;3.23;;;;;;;;;;5094517;28;20512;-58
2023/06/04 01:17:17;;;;;;;4.53;3.30;;;;;;;;;;5094091;28;20414;-59
2023/06/04 01:20:05;;;;;;;4.20;3.73;;;;;;;;;;5094393;28;20539;-58
2023/06/04 01:22:40;;;;;;;5.13;3.77;;;;;;;;;;5087898;28;20508;-59
2023/06/04 01:25:19;;;;;;;5.83;3.20;;;;;;;;;;5093985;28;20453;-58
2023/06/04 01:27:48;;;;;;;3.87;3.37;;;;;;;;;;5094160;28;20499;-59
2023/06/04 01:30:16;;;;;;;3.60;3.30;;;;;;;;;;5094056;28;20446;-59
2023/06/04 01:32:43;;;;;;;5.47;3.37;;;;;;;;;;5093760;28;20996;-59
2023/06/04 01:35:12;;;;;;;4.17;2.90;;;;;;;;;;5093730;28;20453;-59
2023/06/04 01:37:44;;;;;;;3.67;3.37;;;;;;;;;;5093769;28;20447;-59
2023/06/04 01:40:12;;;;;;;4.17;3.33;;;;;;;;;;5093866;28;20425;-59
2023/06/04 01:42:43;;;;;;;4.20;3.30;;;;;;;;;;5093868;28;20486;-59
2023/06/04 01:45:11;;;;;;;3.00;2.70;;;;;;;;;;5093876;28;20451;-59
2023/06/04 01:47:43;;;;;;;3.10;2.90;;;;;;;;;;5093463;28;20421;-59
2023/06/04 01:50:10;;;;;;;3.83;3.53;;;;;;;;;;5093963;28;20429;-59
2023/06/04 01:52:41;;;;;;;3.10;2.80;;;;;;;;;;5093526;28;20482;-59
2023/06/04 01:55:11;;;;;;;2.80;2.60;;;;;;;;;;5093277;28;20450;-59
2023/06/04 01:57:39;;;;;;;3.43;3.00;;;;;;;;;;5093515;28;20450;-59
2023/06/04 02:00:09;;;;;;;3.60;3.30;;;;;;;;;;5092899;28;20447;-59
2023/06/04 02:02:40;;;;;;;3.87;3.50;;;;;;;;;;5093337;28;20447;-59
2023/06/04 02:05:08;;;;;;;4.13;3.73;;;;;;;;;;5093576;28;20451;-59
2023/06/04 02:07:38;;;;;;;5.63;3.63;;;;;;;;;;5093374;28;20486;-59
2023/06/04 02:10:05;;;;;;;3.43;3.10;;;;;;;;;;5093498;28;20443;-59
2023/06/04 02:12:34;;;;;;;4.10;3.10;;;;;;;;;;5093124;28;20453;-60
2023/06/04 02:15:05;;;;;;;3.43;2.97;;;;;;;;;;5093183;28;20455;-59
2023/06/04 02:17:32;;;;;;;3.70;3.40;;;;;;;;;;5092990;28;20457;-59
2023/06/04 02:20:04;;;;;;;6.50;3.00;;;;;;;;;;5093366;28;20830;-59
2023/06/04 02:22:32;;;;;;;4.47;3.93;;;;;;;;;;5093055;28;20455;-59
2023/06/04 02:24:59;;;;;;;3.30;3.10;;;;;;;;;;5093006;28;20540;-59
2023/06/04 02:27:26;;;;;;;3.90;3.00;;;;;;;;;;5093244;28;20493;-59
2023/06/04 02:29:55;;;;;;;5.70;3.03;;;;;;;;;;5092976;28;20973;-59
2023/06/04 02:32:22;;;;;;;3.00;2.80;;;;;;;;;;5092840;28;20512;-59
2023/06/04 02:35:01;;;;;;;;;;;;;;;;;;;;;
2023/06/04 02:37:28;;;;;;;3.80;3.10;;;;;;;;;;5092165;28;20826;-59
2023/06/04 02:39:55;;;;;;;4.27;3.47;;;;;;;;;;5093138;28;20557;-59
2023/06/04 02:42:27;;;;;;;6.63;4.10;;;;;;;;;;5092701;28;20426;-59
2023/06/04 02:44:56;;;;;;;3.90;3.60;;;;;;;;;;5093018;28;20457;-59
2023/06/04 02:47:30;;;;;;;3.83;3.43;;;;;;;;;;5092811;28;20530;-59
2023/06/04 02:49:58;;;;;;;3.73;3.30;;;;;;;;;;5092876;28;20544;-59
2023/06/04 02:52:25;;;;;;;3.83;3.53;;;;;;;;;;5092526;28;20500;-59
2023/06/04 02:54:57;;;;;;;4.30;3.60;;;;;;;;;;5092748;28;20449;-59
2023/06/04 02:57:31;;;;;;;5.10;4.33;;;;;;;;;;5092705;28;20579;-59
2023/06/04 03:00:01;;;;;;;3.93;3.53;;;;;;;;;;5092840;28;20418;-59
2023/06/04 03:02:31;;;;;;;3.83;3.17;;;;;;;;;;5092879;28;20844;-59
2023/06/04 03:04:58;;;;;;;5.23;3.10;;;;;;;;;;5092398;28;20831;-59
2023/06/04 03:07:26;;;;;;;3.87;2.90;;;;;;;;;;5092602;28;20429;-59
2023/06/04 03:09:53;;;;;;;3.57;3.27;;;;;;;;;;5092841;28;20454;-59
2023/06/04 03:12:24;;;;;;;3.57;3.27;;;;;;;;;;5092601;28;20483;-59
2023/06/04 03:14:51;;;;;;;2.80;2.60;;;;;;;;;;5092582;28;20436;-59
2023/06/04 03:17:19;;;;;;;3.23;2.50;;;;;;;;;;5092487;28;20462;-59
2023/06/04 03:19:47;;;;;;;3.43;2.60;;;;;;;;;;5093042;28;20446;-59
2023/06/04 03:22:15;;;;;;;4.97;3.20;;;;;;;;;;5096550;28;20450;-59
2023/06/04 03:24:43;;;;;;;4.43;3.10;;;;;;;;;;5096273;28;20424;-59
2023/06/04 03:27:11;;;;;;;4.17;3.27;;;;;;;;;;5095597;28;20418;-59
2023/06/04 03:29:39;;;;;;;5.97;3.33;;;;;;;;;;5096225;28;20824;-59
2023/06/04 03:32:07;;;;;;;4.30;3.90;;;;;;;;;;5096016;28;20451;-59
2023/06/04 03:34:37;;;;;;;4.17;3.80;;;;;;;;;;5095699;28;20512;-60
2023/06/04 03:37:05;;;;;;;4.63;4.13;;;;;;;;;;5095767;28;20540;-59
2023/06/04 03:39:32;;;;;;;3.07;2.80;;;;;;;;;;5096153;28;20457;-59
2023/06/04 03:42:08;;;;;;;4.37;3.60;;;;;;;;;;5096163;28;20913;-59
2023/06/04 03:44:38;;;;;;;3.50;3.20;;;;;;;;;;5095937;28;20456;-59
2023/06/04 03:47:05;;;;;;;3.50;3.30;;;;;;;;;;5095969;28;20482;-59
2023/06/04 03:49:33;;;;;;;5.20;3.23;;;;;;;;;;5096050;28;20446;-59
2023/06/04 03:52:01;;;;;;;4.40;3.60;;;;;;;;;;5095858;28;20467;-59
2023/06/04 03:54:31;;;;;;;4.97;3.23;;;;;;;;;;5095844;28;20478;-59
2023/06/04 03:56:58;;;;;;;3.63;3.27;;;;;;;;;;5095630;28;20474;-59
2023/06/04 03:59:31;;;;;;;4.60;3.90;;;;;;;;;;5095865;28;20451;-59
2023/06/04 04:02:06;;;;;;;4.03;3.63;;;;;;;;;;5095564;28;20450;-59
2023/06/04 04:04:35;;;;;;;4.00;3.27;;;;;;;;;;5095418;28;21010;-59
2023/06/04 04:07:08;;;;;;;3.37;3.17;;;;;;;;;;5095553;28;20442;-59
2023/06/04 04:09:40;;;;;;;4.70;3.43;;;;;;;;;;5095545;28;20478;-58
2023/06/04 04:12:07;;;;;;;5.40;3.30;;;;;;;;;;5095766;28;20971;-59
2023/06/04 04:14:36;;;;;;;6.23;3.20;;;;;;;;;;5095377;28;20451;-59
2023/06/04 04:17:07;;;;;;;3.30;3.10;;;;;;;;;;5095371;28;20426;-59
2023/06/04 04:19:46;;;;;;;3.70;3.40;;;;;;;;;;5095396;28;20426;-59
2023/06/04 04:22:17;;;;;;;3.83;3.50;;;;;;;;;;5095678;28;20414;-59
2023/06/04 04:24:46;;;;;;;3.73;3.33;;;;;;;;;;5095697;28;20474;-59
2023/06/04 04:27:16;;;;;;;4.47;2.80;;;;;;;;;;5095172;28;20534;-59
2023/06/04 04:29:47;;;;;;;4.93;3.90;;;;;;;;;;5095310;28;20542;-59
2023/06/04 04:32:16;;;;;;;3.60;2.90;;;;;;;;;;5093916;28;20485;-59
2023/06/04 04:34:52;;;;;;;2.70;2.30;;;;;;;;;;5095341;28;20447;-59
2023/06/04 04:37:22;;;;;;;3.50;2.50;;;;;;;;;;5095065;28;20421;-59
2023/06/04 04:39:52;;;;;;;2.57;2.37;;;;;;;;;;5095202;28;20421;-59
2023/06/04 04:42:19;;;;;;;3.20;2.57;;;;;;;;;;5094901;28;20439;-60
2023/06/04 04:44:48;;;;;;;10.73;4.37;;;;;;;;;;5094480;28;20445;-59
2023/06/04 04:47:16;;;;;;;3.53;2.67;;;;;;;;;;5094638;28;20425;-59
2023/06/04 04:49:42;;;;;;;3.47;1.97;;;;;;;;;;5095042;28;20453;-59
2023/06/04 04:52:10;;;;;;;12.50;3.53;;;;;;;;;;5094840;28;20473;-59
2023/06/04 04:54:38;;;;;;;2.60;2.40;;;;;;;;;;5094637;28;20448;-59
2023/06/04 04:57:07;;;;;;;2.70;2.50;;;;;;;;;;5094710;28;20425;-59
2023/06/04 04:59:34;;;;;;;1.87;1.50;;;;;;;;;;5094649;28;20512;-59
2023/06/04 05:02:10;;;;;;;2.10;1.90;;;;;;;;;;5094814;28;20451;-59
2023/06/04 05:04:37;;;;;;;5.47;2.30;;;;;;;;;;5094471;28;20872;-59
2023/06/04 05:07:04;;;;;;;1.90;1.73;;;;;;;;;;5094183;28;20542;-59
2023/06/04 05:09:31;;;;;;;2.27;1.80;;;;;;;;;;5094389;28;20453;-59
2023/06/04 05:12:00;;;;;;;2.23;1.70;;;;;;;;;;5094594;28;20481;-59
2023/06/04 05:14:28;;;;;;;3.10;1.80;;;;;;;;;;5094785;28;20835;-59
2023/06/04 05:16:58;;;;;;;5.77;1.80;;;;;;;;;;5094437;28;20503;-59
2023/06/04 05:19:25;;;;;;;1.60;1.50;;;;;;;;;;5094468;28;20417;-59
2023/06/04 05:21:53;;;;;;;1.70;1.60;;;;;;;;;;5094377;28;20432;-59
2023/06/04 05:24:20;;;;;;;2.20;1.60;;;;;;;;;;5094510;28;20421;-60
2023/06/04 05:26:48;;;;;;;1.97;1.87;;;;;;;;;;5094944;28;20521;-59
2023/06/04 05:29:16;;;;;;;1.70;1.60;;;;;;;;;;5094943;28;20460;-59
2023/06/04 05:31:45;;;;;;;2.03;1.60;;;;;;;;;;5094276;28;20450;-59
2023/06/04 05:34:15;;;;;;;5.83;2.73;;;;;;;;;;5093979;28;20559;-60
2023/06/04 05:36:42;;;;;;;1.53;1.43;;;;;;;;;;5093807;28;20425;-60
2023/06/04 05:39:10;;;;;;;2.50;1.40;;;;;;;;;;5093784;28;20429;-59
2023/06/04 05:41:37;;;;;;;1.97;1.60;;;;;;;;;;5094115;28;20443;-59
2023/06/04 05:44:04;;;;;;;1.77;1.57;;;;;;;;;;5093569;28;20457;-59
2023/06/04 05:46:33;;;;;;;4.63;1.37;;;;;;;;;;5093892;28;20447;-59
2023/06/04 05:49:00;;;;;;;1.50;1.40;;;;;;;;;;5093955;28;20426;-59
2023/06/04 05:51:28;;;;;;;2.73;1.70;;;;;;;;;;5093443;28;20446;-60
2023/06/04 05:53:56;;;;;;;4.03;1.50;;;;;;;;;;5093554;28;20486;-59
2023/06/04 05:56:23;;;;;;;1.50;1.20;;;;;;;;;;5093389;28;20896;-59
2023/06/04 05:58:53;;;;;;;1.40;1.30;;;;;;;;;;5093513;28;20934;-59
2023/06/04 06:01:20;;;;;;;1.80;1.70;;;;;;;;;;5093370;28;20451;-60
2023/06/04 06:03:49;;;;;;;1.30;1.20;;;;;;;;;;5093420;28;20447;-59
2023/06/04 06:06:16;;;;;;;1.33;1.10;;;;;;;;;;5093647;28;20447;-59
2023/06/04 06:08:46;;;;;;;1.43;1.20;;;;;;;;;;5093274;28;20454;-59
2023/06/04 06:11:14;;;;;;;2.10;1.40;;;;;;;;;;5093602;28;20651;-60
2023/06/04 06:13:41;;;;;;;1.77;1.60;;;;;;;;;;5093355;28;20457;-59
2023/06/04 06:16:09;;;;;;;2.07;1.30;;;;;;;;;;5093308;28;20944;-59
2023/06/04 06:18:35;;;;;;;1.67;1.00;;;;;;;;;;5093215;28;20456;-59
2023/06/04 06:21:04;;;;;;;1.50;1.40;;;;;;;;;;5093292;28;20483;-59
2023/06/04 06:23:31;;;;;;;1.30;1.13;;;;;;;;;;5093450;28;20432;-59
2023/06/04 06:26:01;;;;;;;5.30;1.40;;;;;;;;;;5093190;28;20482;-59
2023/06/04 06:28:28;;;;;;;2.90;2.17;;;;;;;;;;5093295;28;20447;-59
2023/06/04 06:30:55;;;;;;;1.50;1.10;;;;;;;;;;5093237;28;20463;-59
2023/06/04 06:33:23;;;;;;;1.80;1.10;;;;;;;;;;5093233;28;20490;-59
2023/06/04 06:35:53;;;;;;;2.17;1.50;;;;;;;;;;5093243;28;20479;-59
2023/06/04 06:38:21;;;;;;;1.37;1.20;;;;;;;;;;5092867;28;20987;-59
2023/06/04 06:40:49;;;;;;;4.60;1.30;;;;;;;;;;5093061;28;20965;-59
2023/06/04 06:43:18;;;;;;;2.57;1.40;;;;;;;;;;5092960;28;20449;-59
2023/06/04 06:45:45;;;;;;;1.00;0.90;;;;;;;;;;5092892;28;20448;-59
2023/06/04 06:48:12;;;;;;;3.13;1.40;;;;;;;;;;5092974;28;20881;-59
2023/06/04 06:50:39;;;;;;;1.90;1.10;;;;;;;;;;5093009;28;20451;-59
2023/06/04 06:53:07;;;;;;;1.47;1.20;;;;;;;;;;5092978;28;20496;-59
2023/06/04 06:55:35;;;;;;;1.17;1.07;;;;;;;;;;5094841;28;20476;-59
2023/06/04 06:58:02;;;;;;;3.30;1.00;;;;;;;;;;5096926;28;20460;-59
2023/06/04 07:00:33;;;;;;;1.10;1.00;;;;;;;;;;5096760;28;20808;-59
2023/06/04 07:03:00;;;;;;;2.90;1.00;;;;;;;;;;5096414;28;20480;-60
2023/06/04 07:05:31;;;;;;;2.13;1.07;;;;;;;;;;5097010;28;20858;-59
2023/06/04 07:07:58;;;;;;;12.63;2.20;;;;;;;;;;5096752;28;20448;-59
2023/06/04 07:10:27;;;;;;;1.40;0.90;;;;;;;;;;5096610;28;20506;-59
2023/06/04 07:12:56;;;;;;;1.63;1.23;;;;;;;;;;5096776;28;20445;-59
2023/06/04 07:15:23;;;;;;;5.67;2.73;;;;;;;;;;5096676;28;20461;-60
2023/06/04 07:17:50;;;;;;;1.10;0.97;;;;;;;;;;5096675;28;20859;-59
2023/06/04 07:20:17;;;;;;;2.30;1.20;;;;;;;;;;5096509;28;21019;-59
2023/06/04 07:22:45;;;;;;;1.10;1.00;;;;;;;;;;5096482;28;20537;-59
2023/06/04 07:25:15;;;;;;;1.40;1.23;;;;;;;;;;5096245;28;20453;-59
2023/06/04 07:27:42;;;;;;;2.50;0.90;;;;;;;;;;5096344;28;20463;-59
2023/06/04 07:30:11;;;;;;;1.40;1.10;;;;;;;;;;5096162;28;21021;-59
2023/06/04 07:32:40;;;;;;;1.93;1.10;;;;;;;;;;5096263;28;20448;-60
2023/06/04 07:35:11;;;;;;;1.87;1.20;;;;;;;;;;5096223;28;20485;-59
2023/06/04 07:37:38;;;;;;;2.03;1.20;;;;;;;;;;5096095;28;20454;-59
2023/06/04 07:40:06;;;;;;;1.10;1.00;;;;;;;;;;5096463;28;20447;-59
2023/06/04 07:42:37;;;;;;;1.63;0.93;;;;;;;;;;5096247;28;20483;-60
2023/06/04 07:45:05;;;;;;;1.87;1.27;;;;;;;;;;5096314;28;20785;-59
2023/06/04 07:47:35;;;;;;;1.93;1.10;;;;;;;;;;5095922;28;20445;-59
2023/06/04 07:50:02;;;;;;;2.03;1.00;;;;;;;;;;5095536;28;20450;-59
2023/06/04 07:52:32;;;;;;;1.23;1.13;;;;;;;;;;5095877;28;20448;-59
2023/06/04 07:54:59;;;;;;;2.00;1.10;;;;;;;;;;5095750;28;20496;-59
2023/06/04 07:57:37;;;;;;;1.20;0.90;;;;;;;;;;5096004;28;20449;-59
2023/06/04 08:00:05;;;;;;;2.10;1.10;;;;;;;;;;5095988;28;20448;-59
2023/06/04 08:02:34;;;;;;;1.30;0.83;;;;;;;;;;5095629;28;20461;-59
2023/06/04 08:05:02;;;;;;;1.07;0.97;;;;;;;;;;5095930;28;20465;-60
2023/06/04 08:07:29;;;;;;;0.93;0.90;;;;;;;;;;5095343;28;20947;-59
2023/06/04 08:10:02;;;;;;;1.63;0.90;;;;;;;;;;5095505;28;20450;-59
2023/06/04 08:12:31;;;;;;;1.23;1.13;;;;;;;;;;5095554;28;20456;-59
2023/06/04 08:15:00;;;;;;;12.00;3.57;;;;;;;;;;5095448;28;20510;-59
2023/06/04 08:17:27;;;;;;;1.10;1.00;;;;;;;;;;5095479;28;20932;-59
2023/06/04 08:19:57;;;;;;;5.20;1.17;;;;;;;;;;5095562;28;20558;-60
2023/06/04 08:22:27;;;;;;;1.67;0.90;;;;;;;;;;5095608;28;20457;-60
2023/06/04 08:24:55;;;;;;;2.37;0.80;;;;;;;;;;5095394;28;20895;-59
2023/06/04 08:27:22;;;;;;;2.70;0.83;;;;;;;;;;5095390;28;20878;-59
2023/06/04 08:29:49;;;;;;;0.90;0.90;;;;;;;;;;5095341;28;20473;-60
2023/06/04 08:32:17;;;;;;;1.00;0.87;;;;;;;;;;5095191;28;20453;-59
2023/06/04 08:34:55;;;;;;;1.73;1.20;;;;;;;;;;5094558;28;20498;-59
2023/06/04 08:37:24;;;;;;;1.90;1.20;;;;;;;;;;5095233;28;20998;-59
2023/06/04 08:39:52;;;;;;;1.90;0.90;;;;;;;;;;5095056;28;20460;-59
2023/06/04 08:42:23;;;;;;;0.90;0.90;;;;;;;;;;5094899;28;20527;-59
2023/06/04 08:44:52;;;;;;;1.00;0.90;;;;;;;;;;5095015;28;20868;-59
2023/06/04 08:47:22;;;;;;;2.30;0.90;;;;;;;;;;5095086;28;20475;-58
2023/06/04 08:49:50;;;;;;;1.10;0.80;;;;;;;;;;5094806;28;20945;-59
2023/06/04 08:52:21;;;;;;;1.43;0.90;;;;;;;;;;5095274;28;20456;-59
2023/06/04 08:54:54;;;;;;;3.03;1.13;;;;;;;;;;5094309;28;20989;-59
2023/06/04 08:57:21;;;;;;;1.43;1.33;;;;;;;;;;5094469;28;20825;-59
2023/06/04 08:59:49;;;;;;;2.27;0.93;;;;;;;;;;5094527;28;20537;-58
2023/06/04 09:02:19;;;;;;;3.93;1.27;;;;;;;;;;5094578;28;20994;-59
2023/06/04 09:04:50;;;;;;;3.63;1.10;;;;;;;;;;5094189;28;20813;-59
2023/06/04 09:07:18;;;;;;;2.33;1.00;;;;;;;;;;5094370;28;20813;-59
2023/06/04 09:09:47;;;;;;;2.17;0.80;;;;;;;;;;5094575;28;20443;-59
2023/06/04 09:12:20;;;;;;;1.00;0.90;;;;;;;;;;5094413;28;20451;-59
2023/06/04 09:14:47;;;;;;;1.67;0.80;;;;;;;;;;5094280;28;20841;-59
2023/06/04 09:17:15;;;;;;;1.00;0.90;;;;;;;;;;5093780;28;20443;-59
2023/06/04 09:19:42;;;;;;;1.20;1.03;;;;;;;;;;5094242;28;20461;-59
2023/06/04 09:22:11;;;;;;;1.00;0.90;;;;;;;;;;5094379;28;20441;-59
2023/06/04 09:24:42;;;;;;;1.63;0.90;;;;;;;;;;5094045;28;20485;-59
2023/06/04 09:27:12;;;;;;;0.97;0.87;;;;;;;;;;5094112;28;20457;-59
2023/06/04 09:29:41;;;;;;;4.50;1.30;;;;;;;;;;5094152;28;20453;-59
2023/06/04 09:32:11;;;;;;;1.57;1.00;;;;;;;;;;5094047;28;20446;-59
2023/06/04 09:34:45;;;;;;;2.70;0.90;;;;;;;;;;5094075;28;20482;-59
2023/06/04 09:37:17;;;;;;;5.30;1.00;;;;;;;;;;5094038;28;20501;-59
2023/06/04 09:39:44;;;;;;;1.33;1.00;;;;;;;;;;5093462;28;20462;-59
2023/06/04 09:42:14;;;;;;;3.33;1.00;;;;;;;;;;5093710;28;20489;-59
2023/06/04 09:44:46;;;;;;;2.50;1.00;;;;;;;;;;5093502;28;20459;-59
2023/06/04 09:47:13;;;;;;;1.80;1.00;;;;;;;;;;5093512;28;20481;-59
2023/06/04 09:49:44;;;;;;;1.00;0.90;;;;;;;;;;5093778;28;20490;-59
2023/06/04 09:52:12;;;;;;;1.50;1.10;;;;;;;;;;5093299;28;20542;-58
2023/06/04 09:54:41;;;;;;;2.53;0.93;;;;;;;;;;5093363;28;20849;-59
2023/06/04 09:57:16;;;;;;;2.93;1.03;;;;;;;;;;5093481;28;20508;-59
2023/06/04 09:59:44;;;;;;;2.17;1.03;;;;;;;;;;5093225;28;20461;-59
2023/06/04 10:02:14;;;;;;;1.90;1.40;;;;;;;;;;5093602;28;20817;-59
2023/06/04 10:04:42;;;;;;;0.90;0.80;;;;;;;;;;5093400;28;20689;-59
2023/06/04 10:07:15;;;;;;;1.87;1.43;;;;;;;;;;5093302;28;20522;-59
2023/06/04 10:09:46;;;;;;;1.10;0.90;;;;;;;;;;5093274;28;20979;-59
2023/06/04 10:12:15;;;;;;;2.30;1.20;;;;;;;;;;5093121;28;20457;-59
2023/06/04 10:14:46;;;;;;;2.03;1.23;;;;;;;;;;5093123;28;20474;-59
2023/06/04 10:17:18;;;;;;;1.93;1.10;;;;;;;;;;5092990;28;20952;-59
2023/06/04 10:19:51;;;;;;;1.87;0.90;;;;;;;;;;5093129;28;20861;-59
2023/06/04 10:22:19;;;;;;;0.83;0.80;;;;;;;;;;5093237;28;20451;-59
2023/06/04 10:24:46;;;;;;;1.23;1.13;;;;;;;;;;5093274;28;20490;-58
2023/06/04 10:27:14;;;;;;;1.10;0.90;;;;;;;;;;5092919;28;21009;-59
2023/06/04 10:29:44;;;;;;;2.20;0.93;;;;;;;;;;5091940;28;21018;-59
2023/06/04 10:32:11;;;;;;;1.37;1.03;;;;;;;;;;5092912;28;20478;-59
2023/06/04 10:34:40;;;;;;;2.63;1.07;;;;;;;;;;5092410;28;20478;-59
2023/06/04 10:37:20;;;;;;;1.03;0.93;;;;;;;;;;5093169;28;20482;-59
2023/06/04 10:39:52;;;;;;;5.70;1.00;;;;;;;;;;5093148;28;20454;-60
2023/06/04 10:42:20;;;;;;;1.43;0.97;;;;;;;;;;5093098;28;20447;-58
2023/06/04 10:44:48;;;;;;;6.53;1.83;;;;;;;;;;5092794;28;20447;-58
2023/06/04 10:47:25;;;;;;;1.87;1.10;;;;;;;;;;5092702;28;20447;-58
2023/06/04 10:49:57;;;;;;;1.60;1.30;;;;;;;;;;5092810;28;20482;-59
2023/06/04 10:52:30;;;;;;;1.30;0.90;;;;;;;;;;5092696;28;20796;-58
2023/06/04 10:55:04;;;;;;;1.40;1.10;;;;;;;;;;5092471;28;20526;-58
2023/06/04 10:57:31;;;;;;;2.30;1.33;;;;;;;;;;5092632;28;20447;-60
2023/06/04 10:59:59;;;;;;;3.23;1.03;;;;;;;;;;5092549;28;20543;-58
2023/06/04 11:02:26;;;;;;;4.07;1.43;;;;;;;;;;5092725;28;20451;-58
2023/06/04 11:05:08;;;;;;;1.60;1.10;;;;;;;;;;5092492;28;20481;-58
2023/06/04 11:07:43;;;;;;;2.30;1.20;;;;;;;;;;5092597;28;20860;-58
2023/06/04 11:10:11;;;;;;;2.90;1.37;;;;;;;;;;5092579;28;20537;-58
2023/06/04 11:12:46;;;;;;;5.80;1.67;;;;;;;;;;5092670;28;20451;-59
2023/06/04 11:15:13;;;;;;;1.77;1.10;;;;;;;;;;5092419;28;20570;-58
2023/06/04 11:17:54;;;;;;;1.93;1.30;;;;;;;;;;5092323;28;20443;-59
2023/06/04 11:20:26;;;;;;;4.10;1.50;;;;;;;;;;5092486;28;20806;-58
2023/06/04 11:22:57;;;;;;;4.50;1.70;;;;;;;;;;5092291;28;20458;-59
2023/06/04 11:25:25;;;;;;;1.97;1.50;;;;;;;;;;5092320;28;20447;-59
2023/06/04 11:27:55;;;;;;;2.87;1.20;;;;;;;;;;5092362;28;20450;-58
2023/06/04 11:30:22;;;;;;;4.47;1.10;;;;;;;;;;5092203;28;20451;-59
2023/06/04 11:32:49;;;;;;;3.63;3.30;;;;;;;;;;5092195;28;20455;-58
2023/06/04 11:35:19;;;;;;;1.80;0.80;;;;;;;;;;5092019;28;20466;-59
2023/06/04 11:37:56;;;;;;;2.60;1.03;;;;;;;;;;5092184;28;20922;-59
2023/06/04 11:40:23;;;;;;;2.67;0.93;;;;;;;;;;5092159;28;20457;-59
2023/06/04 11:42:54;;;;;;;1.20;0.90;;;;;;;;;;5095308;28;20442;-59
2023/06/04 11:45:22;;;;;;;5.60;1.40;;;;;;;;;;5095208;28;20942;-59
2023/06/04 11:47:49;;;;;;;8.03;7.10;;;;;;;;;;5095714;27;20447;-58
2023/06/04 11:50:17;;;;;;;2.63;2.43;;;;;;;;;;5094789;28;20447;-58
2023/06/04 11:52:44;;;;;;;5.30;1.33;;;;;;;;;;5095046;28;20504;-58
2023/06/04 11:55:13;;;;;;;2.43;1.60;;;;;;;;;;5094614;28;20486;-59
2023/06/04 11:57:41;;;;;;;4.40;2.47;;;;;;;;;;5094269;28;20496;-59
2023/06/04 12:00:10;;;;;;;5.93;2.63;;;;;;;;;;5094638;28;20447;-59
2023/06/04 12:02:37;;;;;;;1.10;1.00;;;;;;;;;;5094877;28;20457;-58
2023/06/04 12:05:18;;;;;;;6.50;2.73;;;;;;;;;;5093908;28;20439;-59
2023/06/04 12:07:45;;;;;;;2.20;1.57;;;;;;;;;;5093284;28;20443;-59
2023/06/04 12:10:14;;;;;;;1.33;1.03;;;;;;;;;;5093652;28;20443;-59
2023/06/04 12:12:41;;;;;;;4.03;0.97;;;;;;;;;;5093326;28;20447;-59
2023/06/04 12:15:11;;;;;;;2.13;1.00;;;;;;;;;;5094138;28;20483;-60
2023/06/04 12:17:38;;;;;;;1.80;1.50;;;;;;;;;;5093969;28;20613;-59
2023/06/04 12:20:09;;;;;;;2.10;1.60;;;;;;;;;;5093649;28;20564;-59
2023/06/04 12:22:45;;;;;;;3.80;1.50;;;;;;;;;;5093395;28;20443;-61
2023/06/04 12:25:14;;;;;;;2.10;1.23;;;;;;;;;;5092709;28;20855;-59
2023/06/04 12:27:48;;;;;;;6.33;1.30;;;;;;;;;;5092946;28;20504;-58
2023/06/04 12:30:16;;;;;;;1.27;0.90;;;;;;;;;;5094216;28;20442;-61
2023/06/04 12:32:43;;;;;;;1.40;1.30;;;;;;;;;;5093696;28;20451;-59
2023/06/04 12:35:11;;;;;;;4.67;0.97;;;;;;;;;;5093790;28;20455;-59
2023/06/04 12:37:38;;;;;;;1.30;0.97;;;;;;;;;;5094247;28;20447;-58
2023/06/04 12:40:07;;;;;;;1.30;1.10;;;;;;;;;;5094195;28;20451;-59
2023/06/04 12:42:36;;;;;;;3.83;1.17;;;;;;;;;;5094524;28;20508;-58
2023/06/04 12:45:13;;;;;;;3.93;2.00;;;;;;;;;;5094544;28;20451;-59
2023/06/04 12:47:44;;;;;;;7.43;1.10;;;;;;;;;;5094490;28;20798;-59
2023/06/04 12:50:11;;;;;;;1.37;1.27;;;;;;;;;;5094603;28;20500;-59
2023/06/04 12:52:40;;;;;;;4.43;1.10;;;;;;;;;;5093381;28;20530;-60
2023/06/04 12:55:08;;;;;;;2.10;1.50;;;;;;;;;;5094550;28;21016;-60
2023/06/04 12:57:37;;;;;;;1.07;0.97;;;;;;;;;;5094350;28;20501;-59
2023/06/04 13:00:04;;;;;;;4.20;1.00;;;;;;;;;;5094606;28;20454;-59
2023/06/04 13:02:33;;;;;;;4.47;1.27;;;;;;;;;;5094944;28;20475;-59
2023/06/04 13:05:00;;;;;;;1.10;0.90;;;;;;;;;;5094509;28;20458;-59
2023/06/04 13:07:27;;;;;;;2.60;1.10;;;;;;;;;;5094369;28;20952;-59
2023/06/04 13:09:57;;;;;;;2.50;1.20;;;;;;;;;;5094249;28;20451;-59
2023/06/04 13:12:24;;;;;;;2.03;1.00;;;;;;;;;;5094257;28;20478;-59
2023/06/04 13:14:52;;;;;;;2.87;1.20;;;;;;;;;;5094220;28;20454;-59
2023/06/04 13:17:21;;;;;;;2.17;1.13;;;;;;;;;;5094131;28;20493;-59
2023/06/04 13:19:52;;;;;;;3.83;1.10;;;;;;;;;;5094405;28;20905;-61
2023/06/04 13:22:22;;;;;;;1.70;1.00;;;;;;;;;;5094020;28;20447;-59
2023/06/04 13:24:49;;;;;;;1.67;1.10;;;;;;;;;;5094126;28;20447;-62
2023/06/04 13:27:16;;;;;;;4.73;1.20;;;;;;;;;;5093585;28;20600;-58
2023/06/04 13:29:43;;;;;;;2.20;1.00;;;;;;;;;;5093594;28;20550;-59
2023/06/04 13:32:11;;;;;;;1.83;1.10;;;;;;;;;;5093521;28;20476;-59
2023/06/04 13:34:38;;;;;;;3.23;1.20;;;;;;;;;;5093619;28;20447;-59
2023/06/04 13:37:06;;;;;;;6.23;1.67;;;;;;;;;;5093889;28;20514;-59
2023/06/04 13:39:33;;;;;;;1.27;1.10;;;;;;;;;;5093923;28;20481;-59
2023/06/04 13:42:01;;;;;;;1.10;1.00;;;;;;;;;;5093791;28;20455;-59
2023/06/04 13:44:28;;;;;;;1.30;1.00;;;;;;;;;;5093688;28;20839;-59
2023/06/04 13:47:01;;;;;;;1.20;1.10;;;;;;;;;;5093974;28;20980;-59
2023/06/04 13:49:31;;;;;;;1.57;0.97;;;;;;;;;;5093832;28;20443;-59
2023/06/04 13:52:03;;;;;;;1.87;1.00;;;;;;;;;;5093598;28;20450;-59
2023/06/04 13:54:31;;;;;;;1.27;1.00;;;;;;;;;;5093479;28;20453;-59
2023/06/04 13:56:58;;;;;;;4.27;3.87;;;;;;;;;;5093139;28;20543;-59
2023/06/04 13:59:25;;;;;;;1.73;1.13;;;;;;;;;;5093701;28;20541;-59
2023/06/04 14:01:52;;;;;;;4.40;1.57;;;;;;;;;;5093348;28;20451;-59
2023/06/04 14:04:21;;;;;;;1.33;1.03;;;;;;;;;;5093230;28;20500;-59
2023/06/04 14:06:49;;;;;;;3.13;1.20;;;;;;;;;;5093351;28;20475;-59
2023/06/04 14:09:17;;;;;;;2.47;1.10;;;;;;;;;;5092945;28;20508;-59
2023/06/04 14:11:44;;;;;;;2.27;1.10;;;;;;;;;;5093203;28;20451;-59
2023/06/04 14:14:13;;;;;;;1.33;0.97;;;;;;;;;;5093164;28;20451;-59
2023/06/04 14:16:41;;;;;;;1.20;1.10;;;;;;;;;;5093038;28;20474;-59
2023/06/04 14:19:08;;;;;;;1.67;1.00;;;;;;;;;;5092553;28;20934;-59
2023/06/04 14:21:35;;;;;;;1.43;0.90;;;;;;;;;;5093050;28;20478;-58
2023/06/04 14:24:04;;;;;;;1.67;1.17;;;;;;;;;;5092954;28;20458;-59
2023/06/04 14:26:31;;;;;;;1.07;0.90;;;;;;;;;;5092831;28;20863;-58
2023/06/04 14:29:00;;;;;;;1.10;1.00;;;;;;;;;;5092902;28;20890;-59
2023/06/04 14:31:27;;;;;;;1.40;1.30;;;;;;;;;;5092836;28;21001;-58
2023/06/04 14:33:54;;;;;;;1.63;1.20;;;;;;;;;;5092632;28;20545;-59
2023/06/04 14:36:20;;;;;;;3.47;1.37;;;;;;;;;;5092366;28;20501;-58
2023/06/04 14:38:49;;;;;;;7.03;1.20;;;;;;;;;;5093061;28;20528;-59
2023/06/04 14:41:18;;;;;;;1.10;1.00;;;;;;;;;;5092883;28;20487;-58
2023/06/04 14:43:45;;;;;;;4.67;1.20;;;;;;;;;;5092723;28;20487;-59
2023/06/04 14:46:12;;;;;;;2.33;1.30;;;;;;;;;;5092718;28;20451;-58
2023/06/04 14:48:39;;;;;;;2.30;1.27;;;;;;;;;;5092789;28;20447;-58
2023/06/04 14:51:07;;;;;;;8.40;1.77;;;;;;;;;;5092883;28;20470;-59
2023/06/04 14:53:34;;;;;;;1.63;1.10;;;;;;;;;;5092813;28;20458;-59